Time;durP1;ratioP1;P1;durP2;ratioP2;P2;SDS_P1;SDS_P2;PMS_P1;PMS_P2;Temp;Humidity;BMP_temperature;BMP_pressure;BME280_temperature;BME280_humidity;BME280_pressure;Samples;Min_cycle;Max_cycle;Signal;HPM_P1;HPM_P2
2023/04/26 00:01:34;;;;;;;15.57;4.10;;;;;;;;;;5026660;28;20044;-75
2023/04/26 00:04:00;;;;;;;15.37;4.10;;;;;;;;;;5027072;28;20079;-75
2023/04/26 00:06:26;;;;;;;14.13;3.90;;;;;;;;;;5026475;28;20073;-75
2023/04/26 00:08:52;;;;;;;9.30;3.40;;;;;;;;;;5026825;28;20586;-75
2023/04/26 00:11:18;;;;;;;14.50;3.77;;;;;;;;;;5027427;28;20493;-75
2023/04/26 00:13:44;;;;;;;9.83;3.30;;;;;;;;;;5025664;28;20033;-75
2023/04/26 00:16:10;;;;;;;14.07;4.20;;;;;;;;;;5027378;28;20052;-74
2023/04/26 00:18:36;;;;;;;14.47;4.17;;;;;;;;;;5025710;28;20540;-74
2023/04/26 00:21:02;;;;;;;13.73;3.70;;;;;;;;;;5025727;28;20076;-74
2023/04/26 00:23:28;;;;;;;12.55;3.72;;;;;;;;;;5044123;28;20079;-74
2023/04/26 00:25:54;;;;;;;18.00;4.60;;;;;;;;;;5026463;28;20124;-75
2023/04/26 00:28:20;;;;;;;14.97;4.03;;;;;;;;;;5026576;28;20045;-76
2023/04/26 00:30:47;;;;;;;15.57;3.63;;;;;;;;;;5042897;28;20099;-74
2023/04/26 00:33:13;;;;;;;10.90;3.90;;;;;;;;;;5027685;28;20060;-75
2023/04/26 00:35:39;;;;;;;12.70;3.78;;;;;;;;;;5024949;28;20099;-75
2023/04/26 00:38:06;;;;;;;9.00;3.35;;;;;;;;;;5026976;28;20075;-75
2023/04/26 00:40:34;;;;;;;13.13;4.23;;;;;;;;;;5025796;28;20075;-74
2023/04/26 00:43:00;;;;;;;9.30;3.53;;;;;;;;;;5026864;28;20088;-75
2023/04/26 00:45:26;;;;;;;16.47;3.73;;;;;;;;;;5044226;28;20049;-75
2023/04/26 00:47:52;;;;;;;13.30;3.60;;;;;;;;;;5043832;28;20040;-74
2023/04/26 00:50:18;;;;;;;12.90;3.60;;;;;;;;;;5025381;28;20052;-75
2023/04/26 00:52:45;;;;;;;12.13;3.80;;;;;;;;;;5025506;28;20179;-74
2023/04/26 00:55:11;;;;;;;10.67;3.20;;;;;;;;;;5027337;28;20052;-74
2023/04/26 00:57:38;;;;;;;11.40;3.00;;;;;;;;;;5025519;28;20041;-75
2023/04/26 01:00:04;;;;;;;7.60;3.00;;;;;;;;;;5041316;28;20041;-73
2023/04/26 01:02:30;;;;;;;8.90;3.23;;;;;;;;;;5025735;28;20057;-74
2023/04/26 01:04:56;;;;;;;11.93;3.47;;;;;;;;;;5026540;28;20106;-73
2023/04/26 01:07:23;;;;;;;14.30;4.03;;;;;;;;;;5025972;28;20036;-74
2023/04/26 01:09:49;;;;;;;13.70;3.97;;;;;;;;;;5015023;28;20509;-74
2023/04/26 01:12:16;;;;;;;11.13;3.37;;;;;;;;;;5009998;28;20041;-74
2023/04/26 01:14:42;;;;;;;9.70;3.23;;;;;;;;;;5025017;28;20063;-75
2023/04/26 01:17:08;;;;;;;9.30;3.20;;;;;;;;;;5026289;28;20136;-75
2023/04/26 01:19:36;;;;;;;14.23;3.95;;;;;;;;;;5024891;28;20413;-74
2023/04/26 01:22:03;;;;;;;10.13;2.83;;;;;;;;;;5025696;28;20087;-75
2023/04/26 01:24:29;;;;;;;13.67;3.60;;;;;;;;;;5009907;28;20084;-74
2023/04/26 01:26:55;;;;;;;14.63;3.43;;;;;;;;;;5028779;28;20127;-74
2023/04/26 01:29:23;;;;;;;10.73;3.03;;;;;;;;;;5045116;28;20559;-75
2023/04/26 01:31:49;;;;;;;13.00;3.00;;;;;;;;;;5028519;28;20037;-74
2023/04/26 01:34:15;;;;;;;10.70;3.40;;;;;;;;;;5029426;28;20045;-73
2023/04/26 01:36:41;;;;;;;9.47;3.50;;;;;;;;;;5028238;28;20091;-74
2023/04/26 01:39:08;;;;;;;12.03;3.40;;;;;;;;;;5048193;28;20048;-75
2023/04/26 01:41:34;;;;;;;11.80;3.40;;;;;;;;;;5028513;28;20053;-74
2023/04/26 01:44:00;;;;;;;10.43;3.47;;;;;;;;;;5028758;28;20324;-74
2023/04/26 01:46:26;;;;;;;14.40;3.30;;;;;;;;;;5029725;28;20106;-74
2023/04/26 01:48:52;;;;;;;13.70;4.30;;;;;;;;;;5028748;28;20132;-74
2023/04/26 01:51:18;;;;;;;14.10;3.73;;;;;;;;;;5045738;28;20040;-75
2023/04/26 01:53:44;;;;;;;15.33;3.47;;;;;;;;;;5046709;28;20053;-75
2023/04/26 01:56:10;;;;;;;12.00;3.20;;;;;;;;;;5029246;28;20045;-75
2023/04/26 01:58:36;;;;;;;14.87;4.00;;;;;;;;;;5028477;28;20083;-74
2023/04/26 02:01:08;;;;;;;12.00;3.50;;;;;;;;;;5027280;28;20425;-75
2023/04/26 02:03:35;;;;;;;12.03;3.63;;;;;;;;;;5025607;28;20049;-75
2023/04/26 02:06:01;;;;;;;11.93;3.30;;;;;;;;;;5045095;28;20048;-74
2023/04/26 02:08:27;;;;;;;13.30;3.40;;;;;;;;;;5041414;28;20136;-75
2023/04/26 02:10:53;;;;;;;12.37;3.20;;;;;;;;;;5027464;28;20088;-74
2023/04/26 02:13:19;;;;;;;11.27;3.57;;;;;;;;;;5029417;28;20517;-75
2023/04/26 02:15:45;;;;;;;17.53;3.57;;;;;;;;;;5028258;28;20033;-74
2023/04/26 02:18:11;;;;;;;13.47;3.30;;;;;;;;;;5029988;28;20428;-75
2023/04/26 02:20:42;;;;;;;8.73;3.47;;;;;;;;;;5028052;28;20045;-75
2023/04/26 02:23:08;;;;;;;9.37;3.10;;;;;;;;;;5028731;28;20420;-74
2023/04/26 02:25:34;;;;;;;9.97;3.37;;;;;;;;;;5028779;28;20057;-75
2023/04/26 02:28:00;;;;;;;10.67;3.53;;;;;;;;;;5027161;28;20071;-75
2023/04/26 02:30:27;;;;;;;12.43;3.60;;;;;;;;;;5046456;28;20524;-74
2023/04/26 02:32:56;;;;;;;9.90;3.70;;;;;;;;;;5027699;28;20045;-75
2023/04/26 02:35:24;;;;;;;12.83;3.47;;;;;;;;;;5011426;28;20048;-75
2023/04/26 02:37:53;;;;;;;11.53;3.60;;;;;;;;;;5045444;28;20045;-75
2023/04/26 02:40:19;;;;;;;13.03;3.60;;;;;;;;;;5046989;28;20053;-75
2023/04/26 02:42:45;;;;;;;11.07;3.63;;;;;;;;;;5046585;28;20094;-75
2023/04/26 02:45:11;;;;;;;16.77;3.60;;;;;;;;;;5046107;28;20455;-75
2023/04/26 02:47:38;;;;;;;9.60;3.97;;;;;;;;;;5028499;28;20041;-75
2023/04/26 02:50:07;;;;;;;12.10;3.57;;;;;;;;;;5026415;28;20121;-75
2023/04/26 02:52:34;;;;;;;9.27;3.37;;;;;;;;;;5011971;28;20456;-75
2023/04/26 02:55:01;;;;;;;10.57;3.37;;;;;;;;;;5027948;28;20483;-75
2023/04/26 02:57:27;;;;;;;10.13;3.80;;;;;;;;;;5046609;28;20099;-75
2023/04/26 02:59:53;;;;;;;10.83;3.40;;;;;;;;;;5027316;28;20053;-75
2023/04/26 03:02:19;;;;;;;12.17;3.23;;;;;;;;;;5045135;28;20532;-75
2023/04/26 03:04:46;;;;;;;12.37;3.27;;;;;;;;;;5028137;28;20132;-75
2023/04/26 03:07:12;;;;;;;15.83;3.80;;;;;;;;;;5026895;28;20120;-72
2023/04/26 03:09:38;;;;;;;12.77;4.07;;;;;;;;;;5046410;28;20055;-74
2023/04/26 03:12:06;;;;;;;9.47;3.27;;;;;;;;;;5026490;28;20067;-75
2023/04/26 03:14:32;;;;;;;12.57;3.20;;;;;;;;;;5027993;28;20166;-74
2023/04/26 03:16:58;;;;;;;11.07;3.80;;;;;;;;;;5027751;28;20655;-74
2023/04/26 03:19:25;;;;;;;12.13;3.27;;;;;;;;;;5027447;28;20119;-75
2023/04/26 03:21:51;;;;;;;11.17;3.30;;;;;;;;;;5027128;28;20065;-73
2023/04/26 03:24:17;;;;;;;9.37;3.27;;;;;;;;;;5026942;28;20045;-74
2023/04/26 03:26:43;;;;;;;13.13;3.70;;;;;;;;;;5028042;28;20504;-74
2023/04/26 03:29:11;;;;;;;8.23;3.17;;;;;;;;;;5027083;28;20111;-73
2023/04/26 03:31:37;;;;;;;7.70;3.30;;;;;;;;;;5027387;28;20048;-75
2023/04/26 03:34:03;;;;;;;9.47;3.30;;;;;;;;;;5045006;28;20048;-74
2023/04/26 03:36:29;;;;;;;9.53;3.53;;;;;;;;;;5027713;28;20095;-74
2023/04/26 03:38:55;;;;;;;13.73;3.73;;;;;;;;;;5028314;28;20053;-74
2023/04/26 03:41:21;;;;;;;10.20;3.57;;;;;;;;;;5026863;28;20559;-73
2023/04/26 03:43:48;;;;;;;9.43;3.57;;;;;;;;;;5028167;28;20044;-75
2023/04/26 03:46:14;;;;;;;6.37;3.23;;;;;;;;;;5044539;28;20118;-74
2023/04/26 03:48:40;;;;;;;8.63;3.60;;;;;;;;;;5028235;28;20143;-75
2023/04/26 03:51:06;;;;;;;15.33;3.70;;;;;;;;;;5025733;28;20170;-74
2023/04/26 03:53:32;;;;;;;7.37;3.20;;;;;;;;;;5027439;28;20567;-75
2023/04/26 03:55:58;;;;;;;9.47;3.40;;;;;;;;;;5044631;28;20045;-75
2023/04/26 03:58:25;;;;;;;11.03;3.53;;;;;;;;;;5027608;28;20037;-74
2023/04/26 04:00:51;;;;;;;8.17;3.43;;;;;;;;;;5027464;28;20080;-74
2023/04/26 04:03:17;;;;;;;11.87;3.47;;;;;;;;;;5026711;28;20143;-75
2023/04/26 04:05:43;;;;;;;9.80;3.70;;;;;;;;;;5043821;28;20052;-74
2023/04/26 04:08:09;;;;;;;8.17;3.37;;;;;;;;;;5026927;28;20451;-74
2023/04/26 04:10:36;;;;;;;7.50;3.13;;;;;;;;;;5027177;28;20063;-74
2023/04/26 04:13:02;;;;;;;8.17;3.33;;;;;;;;;;5010280;28;20052;-76
2023/04/26 04:15:28;;;;;;;12.53;3.33;;;;;;;;;;5010204;28;20045;-74
2023/04/26 04:17:54;;;;;;;11.90;3.23;;;;;;;;;;5026588;28;20041;-75
2023/04/26 04:20:21;;;;;;;8.17;2.63;;;;;;;;;;5025531;28;20579;-75
2023/04/26 04:22:47;;;;;;;10.00;3.13;;;;;;;;;;5045528;28;20068;-76
2023/04/26 04:25:13;;;;;;;13.23;3.07;;;;;;;;;;5043351;28;20056;-77
2023/04/26 04:27:41;;;;;;;10.20;3.40;;;;;;;;;;5043445;28;20041;-76
2023/04/26 04:30:07;;;;;;;17.53;3.27;;;;;;;;;;5025093;28;20052;-74
2023/04/26 04:32:34;;;;;;;8.83;3.27;;;;;;;;;;5027757;28;20047;-74
2023/04/26 04:35:00;;;;;;;8.57;3.57;;;;;;;;;;5010460;28;20045;-77
2023/04/26 04:37:27;;;;;;;11.03;3.63;;;;;;;;;;5025726;28;20049;-76
2023/04/26 04:39:53;;;;;;;9.87;3.30;;;;;;;;;;5026237;28;20516;-73
2023/04/26 04:42:20;;;;;;;11.00;3.40;;;;;;;;;;5025859;28;20538;-73
2023/04/26 04:44:46;;;;;;;9.80;3.13;;;;;;;;;;5010758;28;20518;-74
2023/04/26 04:47:12;;;;;;;10.30;3.73;;;;;;;;;;5025718;28;20365;-74
2023/04/26 04:49:38;;;;;;;10.43;3.77;;;;;;;;;;5043169;28;20147;-76
2023/04/26 04:52:05;;;;;;;11.97;3.27;;;;;;;;;;5042916;28;20554;-77
2023/04/26 04:54:31;;;;;;;12.10;3.40;;;;;;;;;;5026284;28;20049;-76
2023/04/26 04:56:57;;;;;;;15.47;3.30;;;;;;;;;;5044809;28;20459;-77
2023/04/26 04:59:24;;;;;;;16.20;3.70;;;;;;;;;;5025645;28;20447;-76
2023/04/26 05:01:50;;;;;;;13.07;3.63;;;;;;;;;;5047291;28;20049;-76
2023/04/26 05:04:16;;;;;;;8.93;3.40;;;;;;;;;;5028877;28;20138;-75
2023/04/26 05:06:42;;;;;;;13.43;3.70;;;;;;;;;;5048544;28;20057;-73
2023/04/26 05:09:09;;;;;;;13.73;3.87;;;;;;;;;;5047246;28;20108;-74
2023/04/26 05:11:35;;;;;;;10.63;3.80;;;;;;;;;;5048004;28;20053;-76
2023/04/26 05:14:01;;;;;;;11.93;3.90;;;;;;;;;;5030224;28;20167;-73
2023/04/26 05:16:27;;;;;;;12.97;3.90;;;;;;;;;;5029701;28;20076;-74
2023/04/26 05:18:53;;;;;;;15.83;4.07;;;;;;;;;;5047588;28;20088;-74
2023/04/26 05:21:19;;;;;;;13.73;4.18;;;;;;;;;;5028070;28;20049;-75
2023/04/26 05:23:45;;;;;;;13.77;3.88;;;;;;;;;;5047666;28;20440;-74
2023/04/26 05:26:15;;;;;;;14.33;4.00;;;;;;;;;;5047592;28;20045;-75
2023/04/26 05:28:41;;;;;;;11.13;3.78;;;;;;;;;;5029703;28;20133;-74
2023/04/26 05:31:08;;;;;;;13.73;4.30;;;;;;;;;;5028629;28;20118;-73
2023/04/26 05:33:34;;;;;;;10.83;3.50;;;;;;;;;;5029921;28;20171;-77
2023/04/26 05:36:00;;;;;;;10.68;3.85;;;;;;;;;;5047320;28;20051;-75
2023/04/26 05:38:26;;;;;;;10.23;3.90;;;;;;;;;;5047807;28;20131;-74
2023/04/26 05:40:52;;;;;;;14.25;3.97;;;;;;;;;;5048328;28;20068;-74
2023/04/26 05:43:18;;;;;;;7.63;3.92;;;;;;;;;;5029344;28;20539;-74
2023/04/26 05:45:51;;;;;;;12.43;3.92;;;;;;;;;;5030069;28;20402;-73
2023/04/26 05:48:18;;;;;;;12.50;3.90;;;;;;;;;;5029057;28;20041;-75
2023/04/26 05:50:44;;;;;;;9.70;3.50;;;;;;;;;;5028752;28;20124;-74
2023/04/26 05:53:10;;;;;;;15.67;3.80;;;;;;;;;;5030093;28;20123;-74
2023/04/26 05:55:36;;;;;;;14.10;3.87;;;;;;;;;;5013144;28;20125;-75
2023/04/26 05:58:02;;;;;;;10.70;4.13;;;;;;;;;;5013087;28;20049;-73
2023/04/26 06:00:28;;;;;;;10.27;3.93;;;;;;;;;;5028430;28;20128;-74
2023/04/26 06:02:54;;;;;;;8.38;3.63;;;;;;;;;;5029408;28;20084;-74
2023/04/26 06:05:20;;;;;;;12.55;4.10;;;;;;;;;;5027395;28;20059;-74
2023/04/26 06:07:46;;;;;;;9.68;3.42;;;;;;;;;;5047811;28;20131;-74
2023/04/26 06:10:12;;;;;;;9.55;3.30;;;;;;;;;;5027650;28;20100;-73
2023/04/26 06:12:38;;;;;;;13.02;3.70;;;;;;;;;;5027755;28;20059;-74
2023/04/26 06:15:04;;;;;;;12.10;3.65;;;;;;;;;;5029560;28;20144;-74
2023/04/26 06:17:30;;;;;;;10.52;3.40;;;;;;;;;;5028127;28;20036;-75
2023/04/26 06:19:56;;;;;;;12.77;3.50;;;;;;;;;;5029103;28;20052;-74
2023/04/26 06:22:22;;;;;;;10.23;3.60;;;;;;;;;;5027892;28;20063;-74
2023/04/26 06:24:48;;;;;;;10.10;3.10;;;;;;;;;;5029160;28;20111;-74
2023/04/26 06:27:14;;;;;;;14.45;4.15;;;;;;;;;;5028019;28;20512;-74
2023/04/26 06:29:42;;;;;;;7.97;3.13;;;;;;;;;;5028941;28;20057;-74
2023/04/26 06:32:08;;;;;;;8.63;3.20;;;;;;;;;;5027194;28;20120;-74
2023/04/26 06:34:35;;;;;;;7.53;3.20;;;;;;;;;;5028768;28;20123;-72
2023/04/26 06:37:01;;;;;;;5.97;2.70;;;;;;;;;;5028380;28;20049;-73
2023/04/26 06:39:27;;;;;;;8.48;2.97;;;;;;;;;;5045409;28;20037;-74
2023/04/26 06:41:53;;;;;;;10.15;2.95;;;;;;;;;;5046206;28;20626;-75
2023/04/26 06:44:20;;;;;;;11.07;2.80;;;;;;;;;;5026980;28;20052;-74
2023/04/26 06:46:45;;;;;;;8.57;2.80;;;;;;;;;;5028655;28;20510;-73
2023/04/26 06:49:11;;;;;;;6.30;2.65;;;;;;;;;;5027004;28;20084;-74
2023/04/26 06:51:37;;;;;;;7.38;2.97;;;;;;;;;;5027800;28;20064;-74
2023/04/26 06:54:04;;;;;;;7.07;2.83;;;;;;;;;;5028294;28;20056;-74
2023/04/26 06:56:30;;;;;;;6.07;2.47;;;;;;;;;;5028272;28;20051;-74
2023/04/26 06:59:00;;;;;;;9.43;2.60;;;;;;;;;;5028141;28;20045;-73
2023/04/26 07:01:28;;;;;;;5.60;2.55;;;;;;;;;;5010276;28;20386;-74
2023/04/26 07:03:54;;;;;;;6.85;2.70;;;;;;;;;;5028545;28;20098;-73
2023/04/26 07:06:20;;;;;;;5.85;2.30;;;;;;;;;;5010293;28;20059;-74
2023/04/26 07:08:46;;;;;;;4.72;2.03;;;;;;;;;;5027517;28;20041;-74
2023/04/26 07:11:13;;;;;;;8.60;2.28;;;;;;;;;;5026982;28;20044;-75
2023/04/26 07:13:39;;;;;;;5.90;2.30;;;;;;;;;;5027558;28;20048;-73
2023/04/26 07:16:05;;;;;;;7.45;2.38;;;;;;;;;;5015386;28;20029;-74
2023/04/26 07:18:31;;;;;;;6.68;2.42;;;;;;;;;;5026966;28;20045;-74
2023/04/26 07:20:57;;;;;;;6.25;3.17;;;;;;;;;;5010497;28;20126;-74
2023/04/26 07:23:23;;;;;;;9.23;2.95;;;;;;;;;;5026753;28;20048;-74
2023/04/26 07:25:49;;;;;;;8.73;2.75;;;;;;;;;;5046028;28;20059;-73
2023/04/26 07:28:15;;;;;;;7.13;2.65;;;;;;;;;;5045245;28;20556;-72
2023/04/26 07:30:41;;;;;;;8.25;3.28;;;;;;;;;;5026638;28;20120;-74
2023/04/26 07:33:07;;;;;;;5.65;2.80;;;;;;;;;;5027699;28;20037;-74
2023/04/26 07:35:36;;;;;;;10.38;2.90;;;;;;;;;;5044929;28;20053;-74
2023/04/26 07:38:02;;;;;;;;;;;;;;;;;;5046318;28;20460;-74
2023/04/26 07:40:28;;;;;;;9.45;2.72;;;;;;;;;;5043586;28;20130;-74
2023/04/26 07:42:54;;;;;;;7.68;2.90;;;;;;;;;;5027312;28;20357;-74
2023/04/26 07:45:21;;;;;;;9.82;3.55;;;;;;;;;;5025778;28;20126;-74
2023/04/26 07:47:47;;;;;;;7.95;2.60;;;;;;;;;;5010673;28;20461;-73
2023/04/26 07:50:13;;;;;;;7.63;3.00;;;;;;;;;;5025608;28;20044;-75
2023/04/26 07:52:39;;;;;;;5.32;2.45;;;;;;;;;;5026939;28;20504;-74
2023/04/26 07:55:06;;;;;;;7.05;2.33;;;;;;;;;;5026271;28;20405;-74
2023/04/26 07:57:32;;;;;;;8.00;2.80;;;;;;;;;;5026095;28;20048;-73
2023/04/26 07:59:58;;;;;;;10.70;2.80;;;;;;;;;;5026388;28;20048;-74
2023/04/26 08:02:24;;;;;;;6.13;2.40;;;;;;;;;;5043628;28;20393;-74
2023/04/26 08:04:54;;;;;;;8.95;2.95;;;;;;;;;;5027645;28;20094;-74
2023/04/26 08:07:20;;;;;;;11.85;2.55;;;;;;;;;;5009678;28;20118;-75
2023/04/26 08:09:48;;;;;;;8.52;2.45;;;;;;;;;;5010337;28;20094;-75
2023/04/26 08:12:14;;;;;;;6.38;2.70;;;;;;;;;;5025074;28;20057;-75
2023/04/26 08:14:40;;;;;;;13.82;2.65;;;;;;;;;;5014436;28;20033;-75
2023/04/26 08:17:10;;;;;;;10.65;2.85;;;;;;;;;;5010570;28;20366;-74
2023/04/26 08:19:36;;;;;;;10.50;2.53;;;;;;;;;;5044027;28;20049;-74
2023/04/26 08:22:03;;;;;;;7.97;2.33;;;;;;;;;;5026991;28;20110;-74
2023/04/26 08:24:28;;;;;;;10.40;2.70;;;;;;;;;;5032698;28;20512;-77
2023/04/26 08:26:55;;;;;;;7.43;2.40;;;;;;;;;;5026496;28;20119;-75
2023/04/26 08:29:22;;;;;;;8.15;2.83;;;;;;;;;;5015079;28;20765;-74
2023/04/26 08:31:48;;;;;;;9.65;2.83;;;;;;;;;;5025925;28;20149;-74
2023/04/26 08:34:14;;;;;;;15.43;2.80;;;;;;;;;;5026327;28;20972;-75
2023/04/26 08:36:40;;;;;;;8.43;2.40;;;;;;;;;;5028252;28;20045;-75
2023/04/26 08:39:07;;;;;;;8.77;2.55;;;;;;;;;;5030533;28;20037;-74
2023/04/26 08:41:37;;;;;;;8.43;2.67;;;;;;;;;;5029287;28;20190;-74
2023/04/26 08:44:07;;;;;;;10.95;2.50;;;;;;;;;;5030476;28;20048;-75
2023/04/26 08:46:36;;;;;;;13.50;3.10;;;;;;;;;;5023902;28;20044;-75
2023/04/26 08:49:10;;;;;;;10.13;2.58;;;;;;;;;;5029707;28;20033;-75
2023/04/26 08:51:36;;;;;;;10.32;2.38;;;;;;;;;;5031009;28;20099;-74
2023/04/26 08:54:03;;;;;;;13.88;2.90;;;;;;;;;;5029555;28;20076;-75
2023/04/26 08:56:30;;;;;;;8.52;2.60;;;;;;;;;;5048922;28;20045;-74
2023/04/26 08:58:56;;;;;;;10.43;2.60;;;;;;;;;;5029637;28;20056;-75
2023/04/26 09:01:23;;;;;;;15.68;7.25;;;;;;;;;;5030149;28;20045;-75
2023/04/26 09:03:49;;;;;;;10.73;2.70;;;;;;;;;;5029938;28;20049;-75
2023/04/26 09:06:16;;;;;;;14.80;2.65;;;;;;;;;;5029765;28;20044;-75
2023/04/26 09:08:42;;;;;;;10.50;2.60;;;;;;;;;;5030905;28;20077;-74
2023/04/26 09:11:08;;;;;;;8.93;2.58;;;;;;;;;;5029910;28;20535;-75
2023/04/26 09:13:34;;;;;;;9.57;2.67;;;;;;;;;;5048850;28;20072;-74
2023/04/26 09:16:00;;;;;;;8.70;2.50;;;;;;;;;;5047050;28;20959;-75
2023/04/26 09:18:26;;;;;;;10.57;2.70;;;;;;;;;;5048037;28;20505;-75
2023/04/26 09:21:02;;;;;;;6.32;2.30;;;;;;;;;;5044361;28;20041;-74
2023/04/26 09:23:29;;;;;;;9.18;2.28;;;;;;;;;;5048105;28;20041;-75
2023/04/26 09:25:55;;;;;;;7.35;2.83;;;;;;;;;;5030125;28;20121;-75
2023/04/26 09:28:22;;;;;;;9.60;2.33;;;;;;;;;;5028510;28;20504;-75
2023/04/26 09:30:48;;;;;;;7.82;3.00;;;;;;;;;;5046915;28;20762;-75
2023/04/26 09:33:15;;;;;;;10.77;2.83;;;;;;;;;;5046704;28;20033;-75
2023/04/26 09:35:41;;;;;;;9.27;2.70;;;;;;;;;;5047259;28;20368;-74
2023/04/26 09:38:12;;;;;;;8.90;2.80;;;;;;;;;;5029335;28;20080;-75
2023/04/26 09:40:39;;;;;;;5.95;2.92;;;;;;;;;;5029375;28;20508;-74
2023/04/26 09:43:05;;;;;;;10.15;2.70;;;;;;;;;;5029343;28;20057;-74
2023/04/26 09:45:32;;;;;;;7.97;2.88;;;;;;;;;;5029124;28;20061;-74
2023/04/26 09:48:15;;;;;;;11.18;3.67;;;;;;;;;;5029680;28;20091;-75
2023/04/26 09:50:42;;;;;;;14.07;3.35;;;;;;;;;;5027661;28;20124;-73
2023/04/26 09:53:09;;;;;;;9.90;3.22;;;;;;;;;;5030657;28;20091;-75
2023/04/26 09:55:35;;;;;;;8.45;3.00;;;;;;;;;;5028689;28;20434;-75
2023/04/26 09:58:07;;;;;;;11.38;3.70;;;;;;;;;;5047433;28;20045;-75
2023/04/26 10:00:33;;;;;;;9.18;3.08;;;;;;;;;;5012111;28;20123;-75
2023/04/26 10:03:00;;;;;;;9.00;2.90;;;;;;;;;;5028054;28;20083;-75
2023/04/26 10:05:26;;;;;;;9.02;2.97;;;;;;;;;;5029046;28;20041;-75
2023/04/26 10:07:52;;;;;;;14.45;3.15;;;;;;;;;;5028650;28;20053;-73
2023/04/26 10:10:20;;;;;;;10.32;3.05;;;;;;;;;;5029176;28;20128;-75
2023/04/26 10:12:47;;;;;;;11.20;3.28;;;;;;;;;;5046098;28;20049;-75
2023/04/26 10:15:13;;;;;;;13.85;3.22;;;;;;;;;;5047103;28;20045;-74
2023/04/26 10:17:39;;;;;;;11.40;2.95;;;;;;;;;;5027217;28;20041;-74
2023/04/26 10:20:08;;;;;;;10.95;3.40;;;;;;;;;;5027588;28;20047;-74
2023/04/26 10:22:37;;;;;;;14.02;3.63;;;;;;;;;;5028530;28;20071;-74
2023/04/26 10:25:03;;;;;;;12.70;3.20;;;;;;;;;;5028327;28;20646;-75
2023/04/26 10:27:45;;;;;;;9.30;2.55;;;;;;;;;;5029204;28;20136;-73
2023/04/26 10:30:12;;;;;;;12.50;2.47;;;;;;;;;;5028133;28;20606;-73
2023/04/26 10:32:57;;;;;;;8.40;2.95;;;;;;;;;;5029320;28;20057;-74
2023/04/26 10:35:26;;;;;;;8.10;2.70;;;;;;;;;;5028789;28;20617;-72
2023/04/26 10:38:00;;;;;;;9.68;2.80;;;;;;;;;;5045249;28;20048;-74
2023/04/26 10:40:26;;;;;;;9.77;3.65;;;;;;;;;;5029846;28;20049;-75
2023/04/26 10:43:10;;;;;;;10.20;4.00;;;;;;;;;;5027690;28;20045;-74
2023/04/26 10:45:37;;;;;;;9.25;3.03;;;;;;;;;;5046741;28;20041;-73
2023/04/26 10:48:16;;;;;;;11.48;3.38;;;;;;;;;;5045561;28;20124;-74
2023/04/26 10:51:00;;;;;;;7.55;3.28;;;;;;;;;;5027253;28;20398;-74
2023/04/26 10:53:53;;;;;;;11.65;3.58;;;;;;;;;;5028688;28;20758;-73
2023/04/26 10:56:25;;;;;;;12.32;3.42;;;;;;;;;;5015992;28;20127;-74
2023/04/26 10:59:26;;;;;;;13.10;4.22;;;;;;;;;;5026953;28;20049;-75
2023/04/26 11:01:52;;;;;;;10.63;3.35;;;;;;;;;;4995319;28;21713;-74
2023/04/26 11:04:18;;;;;;;12.35;3.60;;;;;;;;;;5028281;28;20092;-75
2023/04/26 11:06:56;;;;;;;8.13;3.22;;;;;;;;;;5028531;28;20080;-75
2023/04/26 11:09:47;;;;;;;6.75;2.55;;;;;;;;;;5027206;28;20174;-75
2023/04/26 11:12:14;;;;;;;6.95;2.85;;;;;;;;;;5027063;28;20051;-74
2023/04/26 11:14:44;;;;;;;9.10;2.70;;;;;;;;;;5046218;28;20576;-75
2023/04/26 11:17:10;;;;;;;8.63;2.90;;;;;;;;;;5026256;28;20051;-74
2023/04/26 11:19:36;;;;;;;8.93;3.38;;;;;;;;;;5027896;28;20049;-74
2023/04/26 11:22:02;;;;;;;9.13;3.30;;;;;;;;;;5025850;28;20053;-74
2023/04/26 11:24:32;;;;;;;9.35;3.78;;;;;;;;;;5027806;28;20532;-75
2023/04/26 11:26:58;;;;;;;12.27;3.67;;;;;;;;;;5027356;28;20057;-74
2023/04/26 11:29:25;;;;;;;12.45;3.60;;;;;;;;;;5027533;28;20106;-73
2023/04/26 11:31:55;;;;;;;9.90;3.72;;;;;;;;;;5045435;28;20052;-75
2023/04/26 11:34:34;;;;;;;10.85;4.80;;;;;;;;;;5027211;28;20052;-74
2023/04/26 11:37:01;;;;;;;11.73;3.67;;;;;;;;;;5027173;28;20497;-75
2023/04/26 11:39:27;;;;;;;7.05;3.10;;;;;;;;;;5044491;28;20036;-74
2023/04/26 11:42:19;;;;;;;7.15;2.75;;;;;;;;;;5026914;28;20049;-75
2023/04/26 11:44:45;;;;;;;6.43;2.22;;;;;;;;;;5013942;28;20056;-75
2023/04/26 11:47:11;;;;;;;8.73;2.60;;;;;;;;;;5026177;28;20094;-75
2023/04/26 11:49:37;;;;;;;6.07;2.30;;;;;;;;;;5027455;28;20048;-75
2023/04/26 11:52:04;;;;;;;6.63;1.90;;;;;;;;;;5044133;28;20059;-74
2023/04/26 11:54:31;;;;;;;6.50;1.98;;;;;;;;;;5027772;28;20084;-74
2023/04/26 11:56:58;;;;;;;4.78;2.13;;;;;;;;;;5027034;28;20045;-74
2023/04/26 11:59:24;;;;;;;7.47;2.53;;;;;;;;;;5026810;28;20044;-75
2023/04/26 12:01:53;;;;;;;8.57;2.38;;;;;;;;;;5027070;28;20052;-75
2023/04/26 12:04:26;;;;;;;7.78;2.10;;;;;;;;;;5032786;28;20385;-75
2023/04/26 12:06:52;;;;;;;4.45;2.08;;;;;;;;;;5027384;28;20060;-74
2023/04/26 12:09:22;;;;;;;4.75;1.80;;;;;;;;;;5026154;28;20056;-74
2023/04/26 12:11:52;;;;;;;6.10;2.30;;;;;;;;;;5028167;28;20396;-74
2023/04/26 12:14:18;;;;;;;6.03;2.63;;;;;;;;;;5018846;28;20481;-74
2023/04/26 12:16:46;;;;;;;6.63;2.05;;;;;;;;;;5010095;28;20055;-75
2023/04/26 12:19:12;;;;;;;7.30;2.13;;;;;;;;;;5026568;28;20051;-74
2023/04/26 12:21:42;;;;;;;7.68;2.78;;;;;;;;;;5007510;28;20843;-75
2023/04/26 12:24:19;;;;;;;7.45;2.70;;;;;;;;;;5019654;28;20041;-75
2023/04/26 12:26:45;;;;;;;6.90;2.40;;;;;;;;;;5004358;28;20052;-75
2023/04/26 12:29:11;;;;;;;6.82;2.38;;;;;;;;;;5026606;28;20144;-75
2023/04/26 12:31:37;;;;;;;8.68;2.22;;;;;;;;;;5043863;28;20493;-75
2023/04/26 12:34:03;;;;;;;6.93;2.20;;;;;;;;;;5045078;28;20507;-75
2023/04/26 12:36:30;;;;;;;9.02;2.20;;;;;;;;;;5026143;28;20135;-74
2023/04/26 12:38:56;;;;;;;6.20;2.25;;;;;;;;;;5045253;28;20578;-74
2023/04/26 12:41:23;;;;;;;6.00;2.40;;;;;;;;;;5025294;28;20045;-74
2023/04/26 12:43:49;;;;;;;12.85;2.50;;;;;;;;;;5026311;28;20049;-74
2023/04/26 12:46:15;;;;;;;8.55;2.20;;;;;;;;;;5027210;28;20060;-74
2023/04/26 12:48:41;;;;;;;8.15;3.50;;;;;;;;;;5026241;28;20393;-74
2023/04/26 12:51:07;;;;;;;6.63;2.60;;;;;;;;;;5026541;28;20103;-74
2023/04/26 12:53:33;;;;;;;6.53;2.53;;;;;;;;;;5025971;28;20468;-75
2023/04/26 12:55:59;;;;;;;5.40;1.60;;;;;;;;;;5010919;28;20404;-74
2023/04/26 12:58:25;;;;;;;6.57;2.40;;;;;;;;;;5026153;28;20079;-75
2023/04/26 13:00:52;;;;;;;5.78;1.55;;;;;;;;;;5026892;28;20052;-74
2023/04/26 13:03:18;;;;;;;6.25;2.55;;;;;;;;;;5026130;28;20641;-74
2023/04/26 13:05:44;;;;;;;5.85;2.10;;;;;;;;;;5025458;28;20052;-75
2023/04/26 13:08:10;;;;;;;7.55;2.55;;;;;;;;;;5026764;28;20049;-75
2023/04/26 13:10:36;;;;;;;7.18;2.58;;;;;;;;;;5024575;28;20052;-74
2023/04/26 13:13:02;;;;;;;8.77;3.00;;;;;;;;;;5026835;28;20492;-75
2023/04/26 13:15:28;;;;;;;7.65;3.15;;;;;;;;;;5024977;28;20041;-75
2023/04/26 13:17:54;;;;;;;14.95;3.38;;;;;;;;;;5026747;28;20685;-75
2023/04/26 13:20:21;;;;;;;8.68;3.42;;;;;;;;;;5025189;28;20404;-75
2023/04/26 13:22:47;;;;;;;9.23;3.33;;;;;;;;;;5047148;28;20072;-75
2023/04/26 13:25:14;;;;;;;10.13;4.28;;;;;;;;;;5048166;28;20053;-74
2023/04/26 13:27:40;;;;;;;11.05;3.45;;;;;;;;;;5029094;28;20068;-75
2023/04/26 13:30:07;;;;;;;11.27;4.70;;;;;;;;;;5030220;28;20090;-75
2023/04/26 13:32:33;;;;;;;10.30;2.88;;;;;;;;;;5047187;28;20190;-73
2023/04/26 13:34:59;;;;;;;9.85;3.65;;;;;;;;;;5048228;28;20540;-74
2023/04/26 13:37:25;;;;;;;12.32;3.30;;;;;;;;;;5046847;28;20052;-75
2023/04/26 13:39:51;;;;;;;9.07;2.70;;;;;;;;;;5047306;28;20088;-74
2023/04/26 13:42:17;;;;;;;5.75;2.58;;;;;;;;;;5030163;28;20048;-74
2023/04/26 13:44:44;;;;;;;11.35;2.60;;;;;;;;;;5028514;28;20049;-75
2023/04/26 13:47:09;;;;;;;6.70;2.20;;;;;;;;;;5013683;28;20190;-74
2023/04/26 13:49:36;;;;;;;6.82;2.20;;;;;;;;;;5029047;28;20139;-73
2023/04/26 13:52:02;;;;;;;6.38;2.00;;;;;;;;;;5029960;28;20057;-74
2023/04/26 13:54:28;;;;;;;4.47;1.60;;;;;;;;;;5046817;28;20044;-74
2023/04/26 13:56:54;;;;;;;4.30;1.80;;;;;;;;;;5029664;28;20040;-75
2023/04/26 13:59:20;;;;;;;6.10;1.92;;;;;;;;;;5028867;28;20048;-73
2023/04/26 14:01:46;;;;;;;9.27;2.20;;;;;;;;;;5029758;28;20056;-74
2023/04/26 14:04:12;;;;;;;6.50;1.92;;;;;;;;;;5029264;28;20792;-74
2023/04/26 14:06:38;;;;;;;4.28;1.60;;;;;;;;;;5027860;28;20053;-74
2023/04/26 14:09:04;;;;;;;4.32;1.70;;;;;;;;;;5046963;28;20041;-74
2023/04/26 14:11:31;;;;;;;8.02;2.13;;;;;;;;;;5046414;28;20099;-75
2023/04/26 14:13:57;;;;;;;7.30;2.15;;;;;;;;;;5028348;28;20041;-75
2023/04/26 14:16:24;;;;;;;8.10;1.92;;;;;;;;;;5028328;28;20583;-74
2023/04/26 14:18:50;;;;;;;7.43;2.55;;;;;;;;;;5028963;28;20523;-74
2023/04/26 14:21:16;;;;;;;7.18;2.35;;;;;;;;;;5027907;28;20135;-75
2023/04/26 14:23:42;;;;;;;11.05;3.47;;;;;;;;;;5028892;28;20052;-75
2023/04/26 14:26:08;;;;;;;6.68;2.60;;;;;;;;;;5029662;28;20073;-74
2023/04/26 14:28:35;;;;;;;7.75;2.40;;;;;;;;;;5045936;28;20521;-73
2023/04/26 14:31:01;;;;;;;10.98;2.83;;;;;;;;;;5028308;28;20056;-75
2023/04/26 14:33:27;;;;;;;8.15;3.13;;;;;;;;;;5026583;28;20072;-75
2023/04/26 14:35:54;;;;;;;13.90;3.15;;;;;;;;;;5028432;28;20037;-74